createdAt,value
2022-10-08T00:02:35.725Z,11.60
2022-10-08T00:07:42.683Z,11.43
2022-10-08T00:12:47.964Z,11.33
2022-10-08T00:17:55.747Z,11.32
2022-10-08T00:23:02.000Z,11.38
2022-10-08T00:28:07.427Z,11.42
2022-10-08T00:33:15.848Z,11.28
2022-10-08T00:38:20.840Z,11.41
2022-10-08T00:43:40.530Z,11.51
2022-10-08T00:48:48.445Z,11.58
2022-10-08T00:53:54.061Z,11.54
2022-10-08T00:58:58.963Z,11.58
2022-10-08T01:04:09.029Z,11.75
2022-10-08T01:09:19.541Z,11.73
2022-10-08T01:14:41.711Z,11.71
2022-10-08T01:20:23.464Z,11.89
2022-10-08T01:25:38.926Z,11.84
2022-10-08T01:30:53.231Z,11.88
2022-10-08T01:36:00.828Z,11.74
2022-10-08T01:41:11.137Z,12.00
2022-10-08T01:46:22.995Z,11.98
2022-10-08T01:51:33.122Z,12.03
2022-10-08T01:56:41.376Z,12.07
2022-10-08T02:01:57.516Z,12.10
2022-10-08T02:07:08.011Z,12.08
2022-10-08T02:12:14.535Z,12.19
2022-10-08T02:17:31.775Z,12.35
2022-10-08T02:22:40.895Z,12.33
2022-10-08T02:27:56.360Z,12.52
2022-10-08T02:33:10.305Z,12.55
2022-10-08T02:38:19.516Z,12.60
2022-10-08T02:43:30.402Z,12.71
2022-10-08T02:48:42.499Z,12.87
2022-10-08T02:53:49.298Z,12.88
2022-10-08T02:58:54.804Z,12.98
2022-10-08T03:04:07.405Z,12.87
2022-10-08T03:09:16.652Z,13.12
2022-10-08T03:14:24.005Z,13.16
2022-10-08T03:19:31.657Z,13.33
2022-10-08T03:24:38.359Z,13.08
2022-10-08T03:29:43.270Z,13.19
2022-10-08T03:34:50.665Z,13.26
2022-10-08T03:39:55.380Z,13.48
2022-10-08T03:45:01.505Z,13.41
2022-10-08T03:50:09.780Z,13.68
2022-10-08T03:55:14.942Z,13.31
2022-10-08T04:00:19.923Z,13.54
2022-10-08T04:05:27.334Z,13.59
2022-10-08T04:10:32.104Z,14.18
2022-10-08T04:15:37.037Z,14.28
2022-10-08T04:20:45.152Z,14.18
2022-10-08T04:25:53.630Z,14.14
2022-10-08T04:31:00.701Z,14.37
2022-10-08T04:36:10.682Z,14.21
2022-10-08T04:41:17.764Z,14.33
2022-10-08T04:46:24.523Z,14.49
2022-10-08T04:51:32.007Z,14.52
2022-10-08T04:56:37.729Z,14.51
2022-10-08T05:01:42.600Z,14.58
2022-10-08T05:06:49.999Z,14.64
2022-10-08T05:11:54.799Z,14.63
2022-10-08T05:16:59.569Z,14.67
2022-10-08T05:22:07.009Z,14.71
2022-10-08T05:27:11.931Z,14.72
2022-10-08T05:32:16.699Z,14.78
2022-10-08T05:37:24.028Z,14.85
2022-10-08T05:42:28.886Z,14.80
2022-10-08T05:47:33.782Z,14.87
2022-10-08T05:52:41.203Z,14.93
2022-10-08T05:57:45.996Z,14.95
2022-10-08T06:02:52.657Z,14.97
2022-10-08T06:08:00.074Z,14.95
2022-10-08T06:13:04.835Z,14.93
2022-10-08T06:18:09.668Z,15.01
2022-10-08T06:23:17.144Z,14.95
2022-10-08T06:28:21.907Z,14.92
2022-10-08T06:33:26.811Z,14.93
2022-10-08T06:38:34.190Z,14.93
2022-10-08T06:43:39.224Z,14.98
2022-10-08T06:48:45.121Z,14.87
2022-10-08T06:53:55.755Z,14.80
2022-10-08T06:59:00.864Z,14.80
2022-10-08T07:04:07.436Z,14.78
2022-10-08T07:09:14.984Z,14.80
2022-10-08T07:14:20.068Z,14.70
2022-10-08T07:19:24.833Z,14.77
2022-10-08T07:24:32.193Z,14.79
2022-10-08T07:29:37.003Z,14.73
2022-10-08T07:34:41.861Z,14.70
2022-10-08T07:39:49.290Z,14.86
2022-10-08T07:44:54.889Z,15.16
2022-10-08T07:49:59.637Z,15.43
2022-10-08T07:55:07.761Z,15.58
2022-10-08T08:00:13.982Z,15.96
2022-10-08T08:05:19.625Z,16.42
2022-10-08T08:10:27.137Z,16.10
2022-10-08T08:15:32.002Z,16.77
2022-10-08T08:20:37.303Z,16.96
2022-10-08T08:25:45.081Z,17.03
2022-10-08T08:30:49.992Z,16.31
2022-10-08T08:35:55.824Z,16.86
2022-10-08T08:41:20.937Z,17.38
2022-10-08T08:46:26.267Z,16.67
2022-10-08T08:51:31.481Z,16.72
2022-10-08T08:56:38.985Z,16.85
2022-10-08T09:01:48.026Z,16.92
2022-10-08T09:06:56.426Z,16.85
2022-10-08T09:12:11.899Z,17.69
2022-10-08T09:17:20.879Z,18.90
2022-10-08T09:22:29.015Z,18.77
2022-10-08T09:27:50.907Z,17.69
2022-10-08T09:32:56.285Z,18.33
2022-10-08T09:38:05.663Z,18.45
2022-10-08T09:43:20.174Z,17.68
2022-10-08T09:48:27.639Z,18.36
2022-10-08T09:53:37.803Z,18.33
2022-10-08T09:58:55.218Z,17.96
2022-10-08T10:04:02.249Z,17.45
2022-10-08T10:09:26.925Z,17.20
2022-10-08T10:14:44.098Z,17.51
2022-10-08T10:19:56.976Z,17.08
2022-10-08T10:25:08.628Z,17.11
2022-10-08T10:30:23.150Z,16.96
2022-10-08T10:35:31.677Z,16.71
2022-10-08T10:40:43.322Z,16.53
2022-10-08T10:45:57.883Z,16.51
2022-10-08T10:51:31.766Z,16.53
2022-10-08T10:56:42.641Z,16.67
2022-10-08T11:01:56.658Z,16.41
2022-10-08T11:07:06.833Z,17.09
2022-10-08T11:12:25.662Z,17.25
2022-10-08T11:17:44.594Z,17.80
2022-10-08T11:23:01.458Z,17.78
2022-10-08T11:28:22.926Z,17.93
2022-10-08T11:33:31.252Z,17.93
2022-10-08T11:38:43.202Z,17.78
2022-10-08T11:43:54.739Z,17.98
2022-10-08T11:49:03.963Z,18.02
2022-10-08T11:54:16.250Z,17.22
2022-10-08T11:59:43.293Z,16.89
2022-10-08T12:04:52.017Z,17.02
2022-10-08T12:10:35.288Z,17.14
2022-10-08T12:16:09.908Z,17.41
2022-10-08T12:21:51.056Z,17.14
2022-10-08T12:27:26.685Z,16.97
2022-10-08T12:32:33.250Z,17.09
2022-10-08T12:37:54.675Z,17.73
2022-10-08T12:43:18.851Z,18.30
2022-10-08T12:48:34.045Z,18.55
2022-10-08T12:53:46.537Z,18.32
2022-10-08T12:58:52.243Z,18.28
2022-10-08T13:04:21.637Z,18.89
2022-10-08T13:09:31.926Z,18.75
2022-10-08T13:14:38.837Z,18.83
2022-10-08T13:19:43.920Z,18.79
2022-10-08T13:24:51.270Z,18.40
2022-10-08T13:29:56.138Z,18.30
2022-10-08T13:35:03.011Z,17.53
2022-10-08T13:40:21.945Z,17.28
2022-10-08T13:45:28.518Z,17.06
2022-10-08T13:50:33.481Z,17.07
2022-10-08T13:55:43.812Z,17.49
2022-10-08T14:00:50.589Z,17.74
2022-10-08T14:05:55.608Z,18.04
2022-10-08T14:11:03.331Z,18.00
2022-10-08T14:16:08.520Z,17.23
2022-10-08T14:21:15.648Z,17.04
2022-10-08T14:26:22.995Z,17.25
2022-10-08T14:31:28.034Z,16.72
2022-10-08T14:36:37.947Z,16.28
2022-10-08T14:41:45.439Z,16.05
2022-10-08T14:46:51.903Z,15.44
2022-10-08T14:51:56.816Z,15.63
2022-10-08T14:57:04.283Z,15.53
2022-10-08T15:02:09.142Z,15.77
2022-10-08T15:07:13.903Z,15.65
2022-10-08T15:12:21.498Z,15.57
2022-10-08T15:17:26.479Z,15.08
2022-10-08T15:22:31.266Z,14.95
2022-10-08T15:27:38.695Z,14.92
2022-10-08T15:32:43.576Z,14.94
2022-10-08T15:37:48.830Z,14.93
2022-10-08T15:42:56.498Z,14.77
2022-10-08T15:48:01.200Z,14.54
2022-10-08T15:53:06.118Z,14.77
2022-10-08T15:58:27.366Z,14.62
2022-10-08T16:03:40.075Z,14.65
2022-10-08T16:08:46.548Z,14.71
2022-10-08T16:13:55.867Z,14.78
2022-10-08T16:19:02.997Z,14.72
2022-10-08T16:24:08.534Z,15.08
2022-10-08T16:29:17.509Z,14.65
2022-10-08T16:34:24.226Z,14.88
2022-10-08T16:39:29.193Z,14.71
2022-10-08T16:44:36.920Z,14.71
2022-10-08T16:49:41.582Z,14.56
2022-10-08T16:54:46.431Z,14.06
2022-10-08T16:59:54.959Z,13.83
2022-10-08T17:04:59.771Z,13.65
2022-10-08T17:10:04.986Z,13.56
2022-10-08T17:15:13.425Z,13.49
2022-10-08T17:20:18.418Z,13.64
2022-10-08T17:25:23.303Z,13.24
2022-10-08T17:30:32.084Z,13.79
2022-10-08T17:35:37.266Z,13.21
2022-10-08T17:40:43.945Z,13.22
2022-10-08T17:45:51.469Z,13.05
2022-10-08T17:50:56.617Z,13.28
2022-10-08T17:56:03.836Z,12.87
2022-10-08T18:01:14.332Z,13.03
2022-10-08T18:06:19.392Z,12.59
2022-10-08T18:11:24.634Z,12.44
2022-10-08T18:16:32.943Z,12.34
2022-10-08T18:21:38.476Z,12.59
2022-10-08T18:26:44.576Z,12.49
2022-10-08T18:31:53.400Z,12.43
2022-10-08T18:36:58.270Z,12.61
2022-10-08T18:42:03.375Z,13.29
2022-10-08T18:47:11.210Z,13.07
2022-10-08T18:52:21.523Z,12.77
2022-10-08T18:57:27.756Z,12.66
2022-10-08T19:02:35.370Z,12.57
2022-10-08T19:07:40.178Z,12.44
2022-10-08T19:12:45.438Z,12.37
2022-10-08T19:17:53.010Z,12.40
2022-10-08T19:22:58.186Z,12.16
2022-10-08T19:28:02.973Z,12.22
2022-10-08T19:33:10.409Z,11.95
2022-10-08T19:38:15.378Z,11.97
2022-10-08T19:43:20.110Z,12.07
2022-10-08T19:48:27.547Z,12.00
2022-10-08T19:53:33.122Z,12.09
2022-10-08T19:58:38.198Z,11.75
2022-10-08T20:03:45.948Z,11.52
2022-10-08T20:08:50.799Z,11.60
2022-10-08T20:13:57.335Z,11.59
2022-10-08T20:19:06.587Z,11.40
2022-10-08T20:24:12.005Z,11.39
2022-10-08T20:29:19.082Z,11.25
2022-10-08T20:34:31.333Z,11.22
2022-10-08T20:39:36.301Z,11.62
2022-10-08T20:44:41.146Z,11.39
2022-10-08T20:49:48.580Z,11.49
2022-10-08T20:54:53.367Z,11.30
2022-10-08T20:59:58.165Z,11.14
2022-10-08T21:05:05.575Z,11.04
2022-10-08T21:10:11.911Z,10.73
2022-10-08T21:15:16.955Z,10.76
2022-10-08T21:20:24.425Z,10.74
2022-10-08T21:25:29.255Z,10.75
2022-10-08T21:30:34.119Z,10.84
2022-10-08T21:35:41.696Z,10.73
2022-10-08T21:40:46.843Z,10.72
2022-10-08T21:45:58.839Z,10.80
2022-10-08T21:51:07.895Z,10.79
2022-10-08T21:56:16.100Z,10.78
2022-10-08T22:01:23.889Z,10.84
2022-10-08T22:06:34.207Z,11.02
2022-10-08T22:11:39.334Z,11.04
2022-10-08T22:16:44.313Z,10.63
2022-10-08T22:21:51.994Z,10.80
2022-10-08T22:26:58.415Z,10.32
2022-10-08T22:32:04.322Z,10.33
2022-10-08T22:37:11.815Z,10.49
2022-10-08T22:42:16.654Z,10.21
2022-10-08T22:47:21.672Z,10.30
2022-10-08T22:52:29.160Z,9.94
2022-10-08T22:57:33.970Z,9.79
2022-10-08T23:02:39.215Z,9.70
2022-10-08T23:07:46.858Z,9.57
2022-10-08T23:12:51.820Z,9.37
2022-10-08T23:17:56.672Z,9.23
2022-10-08T23:23:04.242Z,9.16
2022-10-08T23:28:09.279Z,9.02
2022-10-08T23:33:14.125Z,9.05
2022-10-08T23:38:21.541Z,8.85
2022-10-08T23:43:26.437Z,8.86
2022-10-08T23:48:31.272Z,8.97
2022-10-08T23:53:39.467Z,8.96
2022-10-08T23:58:44.477Z,8.78
